EKSB

Sønderborg Airport

Sønderborg, Denmark
METAR EKSB 191520Z 20006KT 9999 BKN007 03/02 Q1002
Observed Flight Rules
Jan-19 @ 15:20 UTC (13 minutes ago) Instrument Flight Rules
Wind Visibility Clouds
200° at 6 knots 10,000+ meters
  • Broken at 700' AGL
Temperatures Readings
Current 3°C / 37°F
Dewpoint 2°C / 36°F
Humidity 93%
Altimeter 29.59" Hg
Pressure 1002 hPa
Elevation 23
METAR EKSB 191520Z 20006KT 9999 BKN007 03/02 Q1002
Observed Flight Rules
Jan-19 @ 15:20 UTC
(13 minutes ago)
IFR
Wind Visibility
200° at 6 knots 10,000+ meters
Clouds
  • Broken at 700' AGL
Temperature Dewpoint
3°C / 37°F 2°C / 36°F
Humidity Altimeter Pressure
93% 29.59" Hg 1002 hPa